Time;durP1;ratioP1;P1;durP2;ratioP2;P2;SDS_P1;SDS_P2;PMS_P1;PMS_P2;Temp;Humidity;BMP_temperature;BMP_pressure;BME280_temperature;BME280_humidity;BME280_pressure;Samples;Min_cycle;Max_cycle;Signal;HPM_P1;HPM_P2
2024/03/26 00:02:23;;;;;;;13.10;2.92;;;;;;;5.22;70.62;99524.22;5022651;28;20066;-73
2024/03/26 00:04:49;;;;;;;12.48;3.05;;;;;;;5.19;70.17;99529.66;5009424;28;20041;-73
2024/03/26 00:07:15;;;;;;;8.80;2.17;;;;;;;5.21;70.84;99535.44;5008375;28;20033;-73
2024/03/26 00:09:42;;;;;;;9.85;2.05;;;;;;;5.25;70.25;99529.06;5007315;28;20048;-73
2024/03/26 00:12:07;;;;;;;8.77;2.00;;;;;;;5.32;69.53;99524.09;5008780;28;20046;-73
2024/03/26 00:14:32;;;;;;;10.65;2.53;;;;;;;5.41;68.68;99517.25;5024161;28;20083;-73
2024/03/26 00:16:58;;;;;;;8.60;1.90;;;;;;;5.51;68.48;99517.91;5005860;28;20034;-73
2024/03/26 00:19:23;;;;;;;4.50;1.85;;;;;;;5.44;69.31;99511.78;5009870;28;20068;-73
2024/03/26 00:21:49;;;;;;;9.20;2.20;;;;;;;5.47;68.59;99508.91;5007452;28;20034;-73
2024/03/26 00:24:14;;;;;;;5.82;2.08;;;;;;;5.38;68.89;99502.91;5009210;28;20037;-73
2024/03/26 00:26:40;;;;;;;7.85;2.20;;;;;;;5.33;69.14;99501.75;5007240;28;20107;-73
2024/03/26 00:29:05;;;;;;;12.80;2.38;;;;;;;5.36;68.62;99494.56;5026426;28;20042;-72
2024/03/26 00:31:33;;;;;;;12.27;2.13;;;;;;;5.34;68.84;99490.53;5010490;28;20037;-73
2024/03/26 00:34:03;;;;;;;8.68;2.47;;;;;;;5.35;68.87;99490.38;5010847;28;20037;-72
2024/03/26 00:36:30;;;;;;;6.72;2.50;;;;;;;5.30;69.13;99492.59;5008349;28;20041;-73
2024/03/26 00:38:55;;;;;;;10.35;2.40;;;;;;;5.29;68.80;99493.53;5007961;28;20428;-73
2024/03/26 00:41:21;;;;;;;8.00;2.10;;;;;;;5.26;69.43;99486.97;5032355;28;20034;-73
2024/03/26 00:43:46;;;;;;;11.07;3.00;;;;;;;5.31;69.31;99483.13;5026990;28;20037;-73
2024/03/26 00:46:12;;;;;;;11.35;3.53;;;;;;;5.23;69.31;99479.53;5006484;28;20030;-73
2024/03/26 00:48:37;;;;;;;10.13;2.08;;;;;;;5.20;69.54;99479.88;5010410;28;20233;-73
2024/03/26 00:51:03;;;;;;;7.55;1.70;;;;;;;5.16;69.33;99480.31;5006436;28;20041;-73
2024/03/26 00:53:28;;;;;;;9.48;1.98;;;;;;;5.26;69.26;99463.03;5023032;28;20025;-73
2024/03/26 00:55:54;;;;;;;7.53;1.92;;;;;;;5.16;70.57;99473.44;5012925;28;20054;-75
2024/03/26 00:58:19;;;;;;;11.30;2.05;;;;;;;5.16;69.97;99464.88;5025675;28;20084;-73
2024/03/26 01:00:45;;;;;;;8.85;2.60;;;;;;;5.07;70.80;99464.84;5027129;28;20038;-73
2024/03/26 01:03:10;;;;;;;7.88;2.10;;;;;;;5.06;70.87;99452.16;5010184;28;20539;-73
2024/03/26 01:05:36;;;;;;;3.50;2.03;;;;;;;5.07;70.68;99446.88;5008964;28;20100;-74
2024/03/26 01:08:01;;;;;;;5.65;1.80;;;;;;;5.14;70.58;99441.13;5010022;28;20378;-73
2024/03/26 01:10:26;;;;;;;5.93;2.08;;;;;;;5.18;70.76;99443.25;5008746;28;20034;-73
2024/03/26 01:12:52;;;;;;;10.93;1.80;;;;;;;5.19;70.33;99441.47;5008221;28;20041;-73
2024/03/26 01:15:18;;;;;;;7.32;1.92;;;;;;;5.22;70.32;99433.47;5025944;28;20030;-73
2024/03/26 01:17:43;;;;;;;8.05;1.88;;;;;;;5.12;71.12;99430.97;5021490;28;20617;-73
2024/03/26 01:20:09;;;;;;;7.55;2.08;;;;;;;5.21;71.08;99424.13;5008696;28;20040;-72
2024/03/26 01:22:35;;;;;;;7.45;1.88;;;;;;;5.15;70.78;99430.69;5010776;28;20038;-73
2024/03/26 01:25:00;;;;;;;7.43;2.40;;;;;;;5.13;70.78;99427.47;5010157;28;20096;-73
2024/03/26 01:27:26;;;;;;;12.75;2.65;;;;;;;5.17;70.66;99422.81;5021169;28;20037;-73
2024/03/26 01:29:51;;;;;;;6.20;2.42;;;;;;;5.13;70.43;99417.19;5006097;28;20191;-73
2024/03/26 01:32:17;;;;;;;9.02;2.97;;;;;;;5.23;69.57;99410.16;5006231;28;20045;-73
2024/03/26 01:34:42;;;;;;;6.63;1.88;;;;;;;5.26;69.11;99409.06;5038451;28;20037;-72
2024/03/26 01:37:08;;;;;;;4.85;2.03;;;;;;;5.26;68.99;99407.28;5007986;28;20060;-73
2024/03/26 01:39:33;;;;;;;8.98;2.03;;;;;;;5.29;69.15;99398.44;5021779;28;20025;-73
2024/03/26 01:41:59;;;;;;;8.85;2.25;;;;;;;5.24;69.71;99398.91;5004930;28;20030;-74
2024/03/26 01:44:24;;;;;;;10.18;1.95;;;;;;;5.17;69.46;99387.66;5023933;28;20072;-73
2024/03/26 01:46:50;;;;;;;4.90;2.08;;;;;;;5.18;69.81;99388.44;5006705;28;20050;-73
2024/03/26 01:49:16;;;;;;;10.82;2.50;;;;;;;5.25;69.18;99384.28;5005590;28;20037;-73
2024/03/26 01:51:44;;;;;;;10.30;2.20;;;;;;;5.29;68.84;99384.78;5002296;28;20037;-72
2024/03/26 01:54:10;;;;;;;5.95;2.05;;;;;;;5.36;68.27;99373.72;5006268;28;20065;-74
2024/03/26 01:56:37;;;;;;;6.80;1.95;;;;;;;5.25;68.15;99377.41;5005964;28;20038;-73
2024/03/26 01:59:03;;;;;;;6.57;2.10;;;;;;;5.30;68.15;99363.28;5003536;28;20030;-74
2024/03/26 02:01:30;;;;;;;8.80;2.22;;;;;;;5.36;68.16;99365.22;5020316;28;20429;-73
2024/03/26 02:03:56;;;;;;;14.63;2.33;;;;;;;5.36;67.92;99362.66;5003169;28;20030;-73
2024/03/26 02:06:21;;;;;;;9.68;2.40;;;;;;;5.39;67.91;99362.34;5021717;28;20065;-73
2024/03/26 02:08:47;;;;;;;7.40;2.28;;;;;;;5.38;68.29;99358.16;5023935;28;20407;-73
2024/03/26 02:11:13;;;;;;;8.75;2.35;;;;;;;5.39;67.59;99355.44;5025198;28;20121;-73
2024/03/26 02:13:38;;;;;;;7.50;2.10;;;;;;;5.36;68.07;99349.78;5004938;28;20084;-73
2024/03/26 02:16:04;;;;;;;7.15;2.67;;;;;;;5.38;67.57;99347.88;5035253;28;20037;-73
2024/03/26 02:18:29;;;;;;;12.63;2.80;;;;;;;5.37;68.38;99346.25;5033760;28;20473;-73
2024/03/26 02:20:55;;;;;;;8.15;2.92;;;;;;;5.43;68.07;99343.06;5023276;28;20041;-73
2024/03/26 02:23:21;;;;;;;6.57;1.90;;;;;;;5.39;67.88;99332.28;5021652;28;20245;-73
2024/03/26 02:25:46;;;;;;;5.75;2.03;;;;;;;5.42;67.75;99336.31;5025322;28;20533;-73
2024/03/26 02:28:12;;;;;;;9.57;2.17;;;;;;;5.45;67.34;99334.22;4995519;28;20037;-73
2024/03/26 02:30:37;;;;;;;4.90;2.55;;;;;;;5.57;66.56;99328.78;5023586;28;20041;-73
2024/03/26 02:33:03;;;;;;;5.20;1.55;;;;;;;5.58;65.47;99314.97;5007892;28;20029;-73
2024/03/26 02:35:28;;;;;;;4.03;1.70;;;;;;;5.61;65.66;99315.47;5007828;28;20418;-73
2024/03/26 02:37:54;;;;;;;5.97;1.80;;;;;;;5.54;65.54;99311.09;5023410;28;20030;-74
2024/03/26 02:40:19;;;;;;;5.93;2.92;;;;;;;5.57;65.89;99301.28;5012795;28;20033;-73
2024/03/26 02:42:45;;;;;;;8.98;2.17;;;;;;;5.62;65.61;99306.75;5023323;28;20108;-73
2024/03/26 02:45:12;;;;;;;7.15;2.38;;;;;;;5.65;65.39;99303.06;5005033;28;20038;-73
2024/03/26 02:47:37;;;;;;;9.00;1.92;;;;;;;5.64;65.24;99301.47;5006419;28;20042;-73
2024/03/26 02:50:03;;;;;;;3.88;1.63;;;;;;;5.64;65.27;99291.19;5008007;28;20100;-74
2024/03/26 02:52:29;;;;;;;11.80;2.08;;;;;;;5.62;64.67;99286.19;5033376;28;20571;-73
2024/03/26 02:54:55;;;;;;;8.00;2.10;;;;;;;5.60;65.34;99285.53;5008368;28;20034;-73
2024/03/26 02:57:20;;;;;;;3.83;1.70;;;;;;;5.60;65.93;99282.97;5004571;28;20042;-72
2024/03/26 03:00:05;;;;;;;9.90;2.17;;;;;;;5.57;65.63;99278.13;5024901;28;20421;-73
2024/03/26 03:02:34;;;;;;;6.38;1.75;;;;;;;5.52;66.08;99280.41;5000878;28;20037;-73
2024/03/26 03:04:59;;;;;;;7.28;2.40;;;;;;;5.59;65.57;99268.50;5005690;28;20424;-73
2024/03/26 03:07:24;;;;;;;7.32;2.28;;;;;;;5.61;65.58;99266.59;5007549;28;20041;-73
2024/03/26 03:09:50;;;;;;;5.53;1.70;;;;;;;5.53;65.66;99265.78;5007287;28;21392;-75
2024/03/26 03:12:15;;;;;;;7.55;2.15;;;;;;;5.59;65.14;99247.91;5005757;28;20089;-74
2024/03/26 03:14:41;;;;;;;5.00;1.75;;;;;;;5.55;65.72;99249.22;5006781;28;20084;-73
2024/03/26 03:17:06;;;;;;;5.57;1.65;;;;;;;5.54;65.57;99250.19;5006619;28;20124;-73
2024/03/26 03:19:32;;;;;;;8.43;1.77;;;;;;;5.53;65.23;99250.34;5008928;28;20649;-74
2024/03/26 03:21:57;;;;;;;10.75;2.42;;;;;;;5.53;65.86;99245.22;5011365;28;20041;-73
2024/03/26 03:24:23;;;;;;;4.22;2.13;;;;;;;5.53;65.64;99237.50;5007738;28;20030;-73
2024/03/26 03:26:48;;;;;;;5.65;1.73;;;;;;;5.54;65.80;99239.09;5022670;28;20050;-73
2024/03/26 03:29:13;;;;;;;12.70;2.10;;;;;;;5.51;65.52;99226.56;5007092;28;20084;-73
2024/03/26 03:31:39;;;;;;;9.25;2.20;;;;;;;5.48;65.88;99227.69;5005504;28;20041;-73
2024/03/26 03:34:05;;;;;;;4.03;2.00;;;;;;;5.53;65.59;99222.88;5004454;28;20033;-74
2024/03/26 03:36:30;;;;;;;5.10;1.73;;;;;;;5.45;65.62;99215.97;5033555;28;20512;-73
2024/03/26 03:38:55;;;;;;;9.10;1.90;;;;;;;5.47;66.34;99214.03;5006397;28;20420;-72
2024/03/26 03:41:21;;;;;;;3.97;1.55;;;;;;;5.46;66.00;99214.19;5017710;28;20042;-74
2024/03/26 03:43:46;;;;;;;10.65;2.20;;;;;;;5.34;66.67;99208.56;5001039;28;20034;-74
2024/03/26 03:46:12;;;;;;;13.02;2.10;;;;;;;5.44;66.40;99203.25;5005475;28;20041;-73
2024/03/26 03:48:37;;;;;;;7.43;1.70;;;;;;;5.44;66.00;99198.13;5006515;28;20034;-74
2024/03/26 03:51:03;;;;;;;7.55;1.73;;;;;;;5.45;66.53;99197.97;5019755;28;20081;-73
2024/03/26 03:53:29;;;;;;;9.88;2.13;;;;;;;5.37;66.52;99202.28;5034669;28;20283;-73
2024/03/26 03:55:54;;;;;;;6.13;1.73;;;;;;;5.29;66.96;99194.59;5021944;28;20046;-73
2024/03/26 03:58:19;;;;;;;8.30;1.50;;;;;;;5.31;67.04;99190.09;5003364;28;20057;-73
2024/03/26 04:00:45;;;;;;;3.78;1.70;;;;;;;5.29;66.81;99184.31;5037998;28;20041;-73
2024/03/26 04:03:10;;;;;;;4.03;1.65;;;;;;;5.37;66.91;99187.69;5004616;28;20026;-73
2024/03/26 04:05:39;;;;;;;4.13;1.52;;;;;;;5.35;67.19;99181.09;5009606;28;20493;-73
2024/03/26 04:08:05;;;;;;;6.50;1.75;;;;;;;5.36;67.25;99177.56;5038257;28;20030;-73
2024/03/26 04:10:31;;;;;;;11.73;2.13;;;;;;;5.28;67.06;99164.72;5022710;28;20389;-73
2024/03/26 04:12:56;;;;;;;5.20;1.98;;;;;;;5.29;67.24;99169.69;5007427;28;20022;-74
2024/03/26 04:15:23;;;;;;;5.03;1.60;;;;;;;5.30;67.27;99171.31;5010093;28;20033;-73
2024/03/26 04:17:52;;;;;;;3.78;1.70;;;;;;;5.29;67.64;99166.31;5022929;28;20041;-73
2024/03/26 04:20:17;;;;;;;4.93;1.83;;;;;;;5.26;67.82;99160.53;5007007;28;20049;-74
2024/03/26 04:22:47;;;;;;;5.70;2.45;;;;;;;5.31;67.32;99162.59;5022326;28;20050;-73
2024/03/26 04:25:15;;;;;;;7.07;2.00;;;;;;;5.23;67.97;99160.84;5009570;28;20037;-74
2024/03/26 04:27:41;;;;;;;8.35;2.10;;;;;;;5.32;67.31;99155.72;5009497;28;20034;-73
2024/03/26 04:30:08;;;;;;;5.68;1.70;;;;;;;5.22;68.33;99148.19;5012749;28;20503;-73
2024/03/26 04:32:35;;;;;;;6.13;1.85;;;;;;;5.21;67.72;99157.63;5023408;28;20061;-73
2024/03/26 04:35:01;;;;;;;7.63;1.90;;;;;;;5.27;67.72;99148.47;5010188;28;20036;-73
2024/03/26 04:37:26;;;;;;;3.45;1.77;;;;;;;5.28;67.55;99146.75;5006128;28;20042;-73
2024/03/26 04:39:51;;;;;;;5.90;1.80;;;;;;;5.15;68.66;99145.44;5008829;28;20030;-73
2024/03/26 04:42:17;;;;;;;7.00;1.55;;;;;;;5.15;68.28;99142.88;5005361;28;20044;-73
2024/03/26 04:44:42;;;;;;;6.22;2.08;;;;;;;5.14;68.16;99141.28;5041192;28;20075;-73
2024/03/26 04:47:08;;;;;;;8.00;1.88;;;;;;;5.14;68.59;99141.28;5011532;28;20049;-73
2024/03/26 04:49:33;;;;;;;4.93;1.35;;;;;;;5.18;68.06;99132.28;5009812;28;20030;-73
2024/03/26 04:51:59;;;;;;;5.80;1.58;;;;;;;5.12;68.74;99127.75;5008354;28;20619;-73
2024/03/26 04:54:24;;;;;;;6.03;1.60;;;;;;;5.08;68.64;99129.06;5028357;28;20428;-74
2024/03/26 04:56:50;;;;;;;5.15;1.80;;;;;;;5.12;68.95;99143.19;5008832;28;20129;-73
2024/03/26 04:59:15;;;;;;;5.35;1.88;;;;;;;5.14;69.15;99141.28;5009538;28;20029;-73
2024/03/26 05:01:41;;;;;;;5.13;1.83;;;;;;;4.96;70.16;99140.63;5023270;28;20106;-74
2024/03/26 05:04:06;;;;;;;6.63;2.00;;;;;;;5.02;69.50;99137.41;5007267;28;20035;-73
2024/03/26 05:06:32;;;;;;;5.60;1.95;;;;;;;5.10;69.79;99134.84;5008858;28;20037;-73
2024/03/26 05:08:57;;;;;;;3.47;1.85;;;;;;;5.03;69.65;99139.03;5024437;28;20034;-74
2024/03/26 05:11:22;;;;;;;5.40;1.63;;;;;;;4.93;69.91;99134.03;5010520;28;20081;-73
2024/03/26 05:13:48;;;;;;;7.45;2.38;;;;;;;5.04;69.53;99135.50;5022786;28;20408;-73
2024/03/26 05:16:13;;;;;;;7.03;1.90;;;;;;;5.07;69.88;99140.31;5009042;28;20026;-73
2024/03/26 05:18:39;;;;;;;8.93;2.33;;;;;;;5.02;69.91;99135.63;5011142;28;20493;-73
2024/03/26 05:21:04;;;;;;;8.90;1.83;;;;;;;5.01;70.70;99135.78;5007087;28;20104;-73
2024/03/26 05:23:30;;;;;;;8.50;2.35;;;;;;;5.05;70.30;99127.63;5008936;28;20033;-74
2024/03/26 05:25:55;;;;;;;3.80;1.90;;;;;;;5.02;70.60;99122.78;5025082;28;20045;-73
2024/03/26 05:28:21;;;;;;;8.65;2.35;;;;;;;5.00;70.53;99118.78;5010396;28;20034;-73
2024/03/26 05:30:46;;;;;;;7.28;2.17;;;;;;;5.02;70.37;99116.88;5005973;28;20038;-73
2024/03/26 05:33:12;;;;;;;7.05;2.03;;;;;;;5.04;69.91;99125.22;5008326;28;20042;-73
2024/03/26 05:35:37;;;;;;;6.38;1.95;;;;;;;5.03;70.64;99121.84;5022167;28;20038;-73
2024/03/26 05:38:03;;;;;;;7.78;2.08;;;;;;;5.09;70.29;99125.53;5010632;28;20045;-73
2024/03/26 05:40:28;;;;;;;5.38;1.73;;;;;;;4.98;71.03;99126.66;5023550;28;20034;-73
2024/03/26 05:42:54;;;;;;;6.38;2.00;;;;;;;5.00;71.56;99113.66;4991324;28;20041;-73
2024/03/26 05:45:19;;;;;;;5.43;2.15;;;;;;;4.95;70.84;99108.97;5008190;28;20037;-73
2024/03/26 05:47:45;;;;;;;6.63;2.40;;;;;;;5.02;71.53;99117.66;5008207;28;20444;-74
2024/03/26 05:50:10;;;;;;;5.32;1.80;;;;;;;5.07;71.00;99110.28;5024164;28;20030;-73
2024/03/26 05:52:35;;;;;;;11.18;2.45;;;;;;;5.06;70.83;99105.28;5007293;28;20041;-73
2024/03/26 05:55:01;;;;;;;5.03;2.13;;;;;;;5.12;71.08;99116.69;5010764;28;20042;-73
2024/03/26 05:57:26;;;;;;;6.45;2.35;;;;;;;5.07;71.33;99106.91;5005779;28;20034;-73
2024/03/26 05:59:52;;;;;;;6.25;2.25;;;;;;;5.07;72.06;99107.72;5004286;28;20040;-74
2024/03/26 06:02:17;;;;;;;8.65;2.40;;;;;;;5.10;72.23;99106.56;5008229;28;20034;-74
2024/03/26 06:04:45;;;;;;;8.35;2.58;;;;;;;5.12;72.31;99107.22;5023484;28;20088;-75
2024/03/26 06:07:11;;;;;;;10.73;2.90;;;;;;;5.17;71.53;99101.59;5005399;28;20041;-73
2024/03/26 06:09:36;;;;;;;6.32;2.30;;;;;;;5.22;71.91;99105.28;5005805;28;20033;-74
2024/03/26 06:12:02;;;;;;;8.15;2.45;;;;;;;5.22;71.75;99104.50;5003321;28;20038;-73
2024/03/26 06:14:27;;;;;;;10.30;2.17;;;;;;;5.18;72.16;99098.88;5005918;28;20080;-73
2024/03/26 06:16:53;;;;;;;8.98;2.97;;;;;;;5.16;72.41;99100.81;5020952;28;20053;-73
2024/03/26 06:19:18;;;;;;;12.73;3.15;;;;;;;5.20;71.78;99104.66;5008644;28;20115;-73
2024/03/26 06:21:45;;;;;;;14.57;3.33;;;;;;;5.28;72.14;99103.03;5008592;28;20120;-74
2024/03/26 06:24:10;;;;;;;12.80;2.20;;;;;;;5.35;71.39;99103.97;5023707;28;20033;-73
2024/03/26 06:26:36;;;;;;;7.88;2.28;;;;;;;5.36;71.50;99100.44;5007944;28;20037;-74
2024/03/26 06:29:02;;;;;;;9.43;2.25;;;;;;;5.37;71.20;99102.88;5023299;28;20041;-73
2024/03/26 06:31:27;;;;;;;5.75;2.10;;;;;;;5.35;71.81;99097.09;5010777;28;20037;-73
2024/03/26 06:33:53;;;;;;;8.63;2.83;;;;;;;5.43;71.78;99104.78;4992155;28;20026;-73
2024/03/26 06:36:18;;;;;;;8.93;3.10;;;;;;;5.42;72.30;99104.94;5024938;28;20042;-73
2024/03/26 06:38:43;;;;;;;4.13;2.30;;;;;;;5.55;71.08;99110.38;5020251;28;20041;-73
2024/03/26 06:41:09;;;;;;;8.07;2.20;;;;;;;5.53;70.73;99101.22;5008275;28;20045;-74
2024/03/26 06:43:34;;;;;;;8.65;2.17;;;;;;;5.57;71.21;99102.50;5007734;28;20029;-73
2024/03/26 06:46:00;;;;;;;9.43;2.70;;;;;;;5.60;71.48;99109.88;5006517;28;20072;-73
2024/03/26 06:48:25;;;;;;;10.15;2.63;;;;;;;5.66;70.93;99109.22;5038939;28;20034;-73
2024/03/26 06:50:51;;;;;;;8.73;2.88;;;;;;;5.65;70.79;99103.28;5010526;28;20037;-73
2024/03/26 06:53:18;;;;;;;5.72;2.80;;;;;;;5.70;71.32;99102.78;5001758;28;20030;-73
2024/03/26 06:55:44;;;;;;;8.13;2.42;;;;;;;5.75;71.05;99102.28;5024171;28;20121;-73
2024/03/26 06:58:10;;;;;;;7.75;2.13;;;;;;;5.75;70.77;99100.50;5005657;28;20037;-73
2024/03/26 07:00:35;;;;;;;6.20;2.28;;;;;;;5.84;70.27;99101.28;5019621;28;20038;-73
2024/03/26 07:03:01;;;;;;;5.35;2.30;;;;;;;5.90;69.99;99102.41;5008203;28;20418;-74
2024/03/26 07:05:26;;;;;;;13.30;2.53;;;;;;;5.92;69.93;99103.03;5021994;28;20041;-73
2024/03/26 07:07:52;;;;;;;5.05;2.30;;;;;;;5.97;69.91;99093.88;5006105;28;20049;-73
2024/03/26 07:10:17;;;;;;;7.45;3.10;;;;;;;6.01;69.06;99094.34;5022949;28;20041;-73
2024/03/26 07:12:43;;;;;;;9.55;2.50;;;;;;;6.03;69.88;99095.78;5037861;28;20034;-73
2024/03/26 07:15:10;;;;;;;8.52;2.55;;;;;;;6.09;69.13;99096.06;5007738;28;20404;-73
2024/03/26 07:17:38;;;;;;;6.45;2.92;;;;;;;6.07;69.10;99091.09;5003781;28;20042;-73
2024/03/26 07:20:09;;;;;;;7.40;2.30;;;;;;;6.09;69.92;99096.06;5010946;28;20142;-73
2024/03/26 07:22:34;;;;;;;5.45;2.30;;;;;;;6.10;70.32;99095.09;5021491;28;20156;-73
2024/03/26 07:25:00;;;;;;;9.13;2.40;;;;;;;6.15;70.33;99092.81;5022196;28;20575;-73
2024/03/26 07:27:26;;;;;;;6.35;2.28;;;;;;;6.21;68.92;99085.22;5005350;28;20049;-73
2024/03/26 07:29:51;;;;;;;9.32;2.30;;;;;;;6.29;69.97;99089.53;5018058;28;20030;-74
2024/03/26 07:32:16;;;;;;;5.55;2.08;;;;;;;6.28;69.90;99084.56;5018270;28;20042;-74
2024/03/26 07:34:42;;;;;;;12.07;2.55;;;;;;;6.39;68.71;99081.59;5023971;28;20075;-73
2024/03/26 07:37:08;;;;;;;6.40;2.35;;;;;;;6.32;68.57;99078.88;5005481;28;20042;-73
2024/03/26 07:39:33;;;;;;;9.05;2.85;;;;;;;6.33;68.86;99077.09;5006416;28;20400;-73
2024/03/26 07:41:58;;;;;;;7.10;2.53;;;;;;;6.29;68.96;99074.09;5006869;28;20045;-73
2024/03/26 07:44:24;;;;;;;4.35;2.55;;;;;;;6.38;69.48;99072.25;5008542;28;20030;-74
2024/03/26 07:46:49;;;;;;;5.55;2.90;;;;;;;6.47;69.13;99080.75;5019912;28;20037;-74
2024/03/26 07:49:15;;;;;;;6.15;2.75;;;;;;;6.47;67.98;99073.00;5019342;28;20442;-73
2024/03/26 07:51:40;;;;;;;7.13;2.28;;;;;;;6.68;67.87;99064.66;5010192;28;20124;-73
2024/03/26 07:54:06;;;;;;;7.80;2.42;;;;;;;6.78;67.43;99062.63;5021239;28;20021;-74
2024/03/26 07:56:32;;;;;;;7.22;2.55;;;;;;;6.78;67.62;99058.28;5012660;28;20050;-73
2024/03/26 07:58:58;;;;;;;6.90;2.40;;;;;;;6.86;67.21;99059.22;5008746;28;20050;-73
2024/03/26 08:01:23;;;;;;;5.18;2.50;;;;;;;6.96;67.36;99059.75;5009759;28;20115;-74
2024/03/26 08:03:50;;;;;;;7.03;2.70;;;;;;;6.99;67.08;99060.22;5023580;28;20478;-75
2024/03/26 08:06:15;;;;;;;7.90;2.70;;;;;;;7.10;66.83;99045.28;5009200;28;20398;-74
2024/03/26 08:08:41;;;;;;;7.35;3.00;;;;;;;7.46;65.33;99050.56;5011342;28;20026;-73
2024/03/26 08:11:07;;;;;;;5.05;2.55;;;;;;;7.58;64.85;99054.28;5023409;28;20030;-73
2024/03/26 08:13:32;;;;;;;13.10;3.60;;;;;;;7.68;64.17;99051.44;5025340;28;20676;-73
2024/03/26 08:15:58;;;;;;;9.00;2.42;;;;;;;7.90;63.68;99052.28;5022439;28;23797;-73
2024/03/26 08:18:23;;;;;;;10.38;2.60;;;;;;;7.90;63.48;99049.72;5014002;28;20038;-73
2024/03/26 08:20:49;;;;;;;17.45;6.97;;;;;;;7.82;63.38;99044.66;5008335;28;20172;-74
2024/03/26 08:23:14;;;;;;;5.40;2.33;;;;;;;7.82;63.45;99044.66;5011669;28;20036;-73
2024/03/26 08:25:40;;;;;;;10.77;3.58;;;;;;;7.78;64.02;99040.84;5027090;28;20041;-73
2024/03/26 08:28:06;;;;;;;13.15;3.33;;;;;;;7.73;63.66;99038.78;5009221;28;20037;-73
2024/03/26 08:30:31;;;;;;;3.90;2.28;;;;;;;7.76;64.38;99038.44;5021411;28;20033;-73
2024/03/26 08:32:56;;;;;;;6.65;2.35;;;;;;;7.70;64.43;99035.78;5025423;28;20536;-73
2024/03/26 08:35:22;;;;;;;6.30;2.40;;;;;;;7.81;64.60;99032.72;5012033;28;20476;-74
2024/03/26 08:37:47;;;;;;;8.73;3.03;;;;;;;7.77;65.02;99032.28;5016016;28;20056;-73
2024/03/26 08:40:13;;;;;;;5.97;2.30;;;;;;;7.74;64.35;99026.69;5009576;28;20033;-73
2024/03/26 08:42:38;;;;;;;7.00;2.42;;;;;;;7.73;64.31;99030.25;5007138;28;20034;-74
2024/03/26 08:45:08;;;;;;;6.30;2.30;;;;;;;7.72;64.56;99024.31;5008558;28;20040;-74
2024/03/26 08:47:34;;;;;;;8.80;2.47;;;;;;;7.77;65.39;99037.44;5006180;28;20044;-75
2024/03/26 08:50:00;;;;;;;6.70;2.40;;;;;;;7.90;65.35;99026.47;5010487;28;20433;-73
2024/03/26 08:52:25;;;;;;;8.93;2.50;;;;;;;7.95;65.27;99025.97;5023779;28;20129;-73
2024/03/26 08:54:51;;;;;;;4.20;2.30;;;;;;;8.03;64.39;99014.72;5037347;28;20088;-73
2024/03/26 08:57:17;;;;;;;9.43;2.50;;;;;;;8.03;64.06;99007.75;5009169;28;20854;-75
2024/03/26 08:59:44;;;;;;;8.30;2.42;;;;;;;8.07;64.83;99016.75;5027551;28;20080;-73
2024/03/26 09:02:09;;;;;;;6.68;2.28;;;;;;;8.09;65.32;99012.19;5027821;28;20589;-73
2024/03/26 09:04:36;;;;;;;9.90;2.83;;;;;;;8.20;65.70;99010.91;5009419;28;20053;-73
2024/03/26 09:07:02;;;;;;;7.90;2.65;;;;;;;8.10;64.80;99018.97;5023014;28;20536;-73
2024/03/26 09:09:28;;;;;;;10.95;2.70;;;;;;;8.22;64.15;99018.47;5009854;28;20022;-73
2024/03/26 09:11:53;;;;;;;8.00;2.38;;;;;;;8.18;63.68;99018.84;5004832;28;20533;-74
2024/03/26 09:14:19;;;;;;;6.50;2.15;;;;;;;8.19;63.59;99009.31;5007574;28;20041;-74
2024/03/26 09:16:45;;;;;;;6.43;2.22;;;;;;;8.15;63.75;99011.44;5008667;28;20037;-74
2024/03/26 09:19:11;;;;;;;10.52;2.90;;;;;;;8.07;64.91;99006.41;5006450;28;20397;-73
2024/03/26 09:21:36;;;;;;;6.07;2.53;;;;;;;8.17;64.31;99006.94;5005249;28;20041;-74
2024/03/26 09:24:02;;;;;;;5.55;2.92;;;;;;;8.25;64.82;99002.59;5021488;28;20034;-73
2024/03/26 09:26:28;;;;;;;8.77;2.72;;;;;;;8.28;64.48;98994.50;5009139;28;20846;-73
2024/03/26 09:28:53;;;;;;;5.78;2.05;;;;;;;8.31;63.46;98994.16;5030977;28;20107;-74
2024/03/26 09:31:19;;;;;;;6.68;2.63;;;;;;;8.32;63.41;98987.97;5011892;28;20049;-73
2024/03/26 09:33:45;;;;;;;6.47;2.20;;;;;;;8.32;63.15;98990.56;5007888;28;20049;-74
2024/03/26 09:36:10;;;;;;;6.97;2.70;;;;;;;8.41;63.86;98986.88;5007844;28;20041;-73
2024/03/26 09:38:36;;;;;;;7.47;2.42;;;;;;;8.55;65.22;98977.47;5026582;28;20099;-73
2024/03/26 09:41:02;;;;;;;4.25;2.08;;;;;;;8.56;63.60;98984.25;5025430;28;20038;-73
2024/03/26 09:43:30;;;;;;;7.88;2.40;;;;;;;8.60;63.75;98969.16;5009869;28;20042;-73
2024/03/26 09:45:57;;;;;;;5.47;2.70;;;;;;;8.57;63.04;98978.88;5010628;28;20049;-74
2024/03/26 09:48:23;;;;;;;6.95;2.55;;;;;;;8.66;63.50;98971.78;5007119;28;20037;-73
2024/03/26 09:50:50;;;;;;;10.95;2.55;;;;;;;8.69;63.55;98968.03;5006726;28;20512;-73
2024/03/26 09:53:17;;;;;;;8.13;2.40;;;;;;;8.63;62.92;98972.19;5006966;28;20034;-74
2024/03/26 09:55:43;;;;;;;5.82;2.50;;;;;;;8.56;62.84;98973.91;5034970;28;20093;-74
2024/03/26 09:58:09;;;;;;;11.27;2.42;;;;;;;8.67;62.88;98970.81;5010144;28;20037;-73
2024/03/26 10:00:37;;;;;;;7.75;2.20;;;;;;;8.68;62.44;98964.66;5007107;28;20096;-74
2024/03/26 10:03:07;;;;;;;9.15;2.45;;;;;;;8.80;62.57;98969.28;5013009;28;20120;-73
2024/03/26 10:05:33;;;;;;;5.75;2.78;;;;;;;8.81;62.69;98965.72;5004810;28;20053;-73
2024/03/26 10:07:58;;;;;;;7.80;2.55;;;;;;;8.85;63.21;98969.53;5007709;28;20048;-73
2024/03/26 10:10:24;;;;;;;11.00;2.95;;;;;;;8.98;62.48;98961.06;5008586;28;20042;-74
2024/03/26 10:12:49;;;;;;;10.70;2.30;;;;;;;8.89;63.34;98968.97;5009837;28;20025;-73
2024/03/26 10:15:15;;;;;;;7.50;2.50;;;;;;;8.81;63.22;98963.94;5025605;28;20042;-74
2024/03/26 10:17:40;;;;;;;7.43;2.80;;;;;;;8.77;62.90;98952.38;5025606;28;20034;-73
2024/03/26 10:20:06;;;;;;;7.80;2.20;;;;;;;8.75;63.73;98962.13;5025281;28;20037;-73
2024/03/26 10:22:32;;;;;;;7.18;2.15;;;;;;;8.84;63.12;98957.63;5025693;28;20042;-74
2024/03/26 10:24:57;;;;;;;9.85;2.88;;;;;;;8.72;62.35;98945.22;5008793;28;20496;-74
2024/03/26 10:27:22;;;;;;;6.97;2.33;;;;;;;8.68;63.04;98946.59;5038570;28;20053;-73
2024/03/26 10:29:52;;;;;;;6.40;2.60;;;;;;;8.79;63.48;98937.50;5041326;28;20032;-74
2024/03/26 10:32:22;;;;;;;9.23;2.60;;;;;;;8.82;63.57;98946.66;5006004;28;20053;-74
2024/03/26 10:34:53;;;;;;;14.30;2.58;;;;;;;8.92;63.68;98941.94;5008309;28;20056;-73
2024/03/26 10:37:24;;;;;;;7.97;2.50;;;;;;;9.08;63.06;98933.88;5005670;28;20149;-73
2024/03/26 10:39:54;;;;;;;3.63;2.53;;;;;;;9.09;63.31;98926.91;5008298;28;20029;-74
2024/03/26 10:42:20;;;;;;;8.95;2.90;;;;;;;9.23;62.27;98912.25;5002858;28;20121;-73
2024/03/26 10:44:47;;;;;;;12.25;2.30;;;;;;;9.20;62.72;98910.84;5007445;28;20468;-74
2024/03/26 10:47:13;;;;;;;8.80;2.40;;;;;;;9.22;62.52;98910.66;5010528;28;20120;-74
2024/03/26 10:49:40;;;;;;;11.02;2.50;;;;;;;9.20;62.89;98913.44;5006221;28;20038;-74
2024/03/26 10:52:09;;;;;;;10.15;2.85;;;;;;;9.27;62.45;98903.13;5012725;28;20030;-73
2024/03/26 10:54:36;;;;;;;7.32;2.42;;;;;;;9.28;62.04;98912.47;5003549;28;20030;-74
2024/03/26 10:57:02;;;;;;;3.97;2.38;;;;;;;9.37;62.34;98900.19;5004951;28;20799;-74
2024/03/26 10:59:27;;;;;;;11.18;2.70;;;;;;;9.49;63.03;98902.03;5003471;28;20037;-74
2024/03/26 11:01:54;;;;;;;10.00;2.75;;;;;;;9.67;63.14;98895.47;5017767;28;20038;-75
2024/03/26 11:04:20;;;;;;;9.68;2.70;;;;;;;9.69;61.94;98883.16;5007152;28;20083;-74
2024/03/26 11:06:46;;;;;;;7.35;2.70;;;;;;;9.74;61.95;98888.53;5007300;28;20125;-73
2024/03/26 11:09:15;;;;;;;6.25;2.78;;;;;;;9.84;61.24;98883.75;5024039;28;20342;-74
2024/03/26 11:11:41;;;;;;;7.50;2.42;;;;;;;9.91;61.59;98883.78;5003382;28;20497;-74
2024/03/26 11:14:07;;;;;;;4.80;2.40;;;;;;;10.01;61.87;98881.59;5009514;28;20030;-73
2024/03/26 11:16:42;;;;;;;12.25;4.05;;;;;;;10.15;60.76;98877.19;5024323;28;20049;-73
2024/03/26 11:19:18;;;;;;;8.18;2.88;;;;;;;10.25;61.19;98874.22;5002156;28;20044;-74
2024/03/26 11:21:44;;;;;;;7.72;3.13;;;;;;;10.41;61.19;98870.44;5022329;28;20038;-74
2024/03/26 11:24:32;;;;;;;6.20;3.05;;;;;;;10.52;61.42;98865.44;5024735;28;20493;-73
2024/03/26 11:26:59;;;;;;;5.88;2.22;;;;;;;10.48;61.65;98859.06;5007447;28;20620;-73
2024/03/26 11:29:26;;;;;;;6.65;2.47;;;;;;;10.51;61.48;98860.47;5010963;28;20029;-74
2024/03/26 11:31:51;;;;;;;9.23;2.88;;;;;;;10.47;61.73;98856.66;5007828;28;20034;-73
2024/03/26 11:34:20;;;;;;;8.55;3.40;;;;;;;10.62;62.45;98857.22;5012506;28;20033;-74